createdAt,value
2023-04-18T00:00:17.611Z,55.60
2023-04-18T00:02:51.619Z,57.22
2023-04-18T00:05:23.674Z,56.30
2023-04-18T00:07:52.041Z,57.21
2023-04-18T00:10:20.706Z,57.77
2023-04-18T00:12:49.002Z,57.81
2023-04-18T00:15:16.231Z,57.75
2023-04-18T00:17:43.543Z,57.65
2023-04-18T00:20:12.588Z,57.68
2023-04-18T00:22:46.716Z,58.02
2023-04-18T00:25:14.967Z,59.30
2023-04-18T00:27:42.554Z,56.74
2023-04-18T00:30:10.761Z,56.43
2023-04-18T00:32:39.077Z,57.92
2023-04-18T00:35:07.617Z,59.02
2023-04-18T00:37:35.853Z,57.02
2023-04-18T00:40:05.526Z,56.81
2023-04-18T00:42:34.147Z,55.82
2023-04-18T00:45:01.676Z,56.05
2023-04-18T00:47:31.340Z,55.24
2023-04-18T00:49:59.502Z,56.44
2023-04-18T00:52:27.663Z,56.25
2023-04-18T00:54:55.740Z,56.51
2023-04-18T00:57:23.393Z,58.46
2023-04-18T00:59:52.028Z,58.08
2023-04-18T01:02:22.827Z,57.35
2023-04-18T01:04:50.768Z,57.53
2023-04-18T01:07:18.460Z,57.57
2023-04-18T01:09:46.320Z,58.32
2023-04-18T01:12:13.570Z,57.46
2023-04-18T01:14:44.084Z,58.67
2023-04-18T01:17:13.259Z,58.24
2023-04-18T01:19:41.034Z,59.45
2023-04-18T01:22:10.459Z,58.55
2023-04-18T01:24:38.100Z,58.54
2023-04-18T01:27:05.855Z,58.49
2023-04-18T01:29:34.197Z,57.07
2023-04-18T01:32:02.624Z,58.20
2023-04-18T01:34:30.205Z,58.24
2023-04-18T01:36:57.590Z,57.86
2023-04-18T01:39:24.822Z,58.01
2023-04-18T01:41:52.878Z,59.29
2023-04-18T01:44:20.241Z,58.96
2023-04-18T01:46:47.858Z,60.06
2023-04-18T01:49:16.472Z,59.45
2023-04-18T01:51:43.943Z,59.06
2023-04-18T01:54:11.156Z,58.86
2023-04-18T01:56:38.546Z,58.31
2023-04-18T01:59:06.323Z,58.70
2023-04-18T02:01:33.971Z,57.85
2023-04-18T02:04:01.425Z,57.60
2023-04-18T02:06:28.714Z,58.34
2023-04-18T02:08:56.074Z,58.81
2023-04-18T02:11:25.608Z,57.87
2023-04-18T02:13:52.904Z,58.26
2023-04-18T02:16:24.103Z,57.02
2023-04-18T02:18:52.444Z,57.37
2023-04-18T02:21:22.076Z,56.78
2023-04-18T02:23:57.026Z,56.35
2023-04-18T02:26:24.620Z,56.74
2023-04-18T02:28:51.909Z,58.76
2023-04-18T02:31:19.214Z,59.10
2023-04-18T02:33:48.046Z,58.48
2023-04-18T02:36:15.594Z,60.62
2023-04-18T02:38:43.260Z,59.22
2023-04-18T02:41:17.521Z,59.61
2023-04-18T02:43:45.521Z,59.95
2023-04-18T02:46:15.120Z,60.33
2023-04-18T02:48:45.369Z,59.60
2023-04-18T02:51:13.720Z,60.27
2023-04-18T02:53:40.996Z,59.85
2023-04-18T02:56:08.414Z,59.12
2023-04-18T02:58:54.373Z,59.12
2023-04-18T03:01:40.433Z,60.13
2023-04-18T03:04:15.180Z,58.18
2023-04-18T03:07:11.025Z,57.52
2023-04-18T03:09:39.888Z,59.06
2023-04-18T03:12:16.908Z,58.58
2023-04-18T03:14:44.503Z,57.77
2023-04-18T03:17:13.805Z,57.20
2023-04-18T03:19:45.432Z,57.16
2023-04-18T03:22:15.896Z,59.10
2023-04-18T03:24:51.271Z,57.46
2023-04-18T03:27:19.862Z,59.10
2023-04-18T03:29:48.323Z,57.97
2023-04-18T03:32:17.346Z,57.17
2023-04-18T03:34:45.088Z,56.51
2023-04-18T03:37:12.914Z,56.26
2023-04-18T03:39:45.997Z,55.62
2023-04-18T03:42:13.955Z,55.49
2023-04-18T03:44:42.573Z,56.85
2023-04-18T03:47:10.305Z,55.65
2023-04-18T03:49:41.585Z,58.93
2023-04-18T03:52:09.182Z,58.74
2023-04-18T03:54:36.349Z,57.38
2023-04-18T03:57:04.731Z,56.73
2023-04-18T03:59:33.421Z,56.69
2023-04-18T04:02:01.084Z,57.67
2023-04-18T04:04:28.654Z,57.59
2023-04-18T04:06:58.094Z,55.68
2023-04-18T04:09:25.917Z,57.04
2023-04-18T04:11:53.299Z,57.70
2023-04-18T04:14:21.534Z,57.67
2023-04-18T04:16:49.302Z,58.43
2023-04-18T04:19:17.852Z,60.31
2023-04-18T04:21:54.341Z,59.77
2023-04-18T04:24:23.048Z,60.43
2023-04-18T04:26:51.888Z,59.81
2023-04-18T04:29:23.773Z,58.58
2023-04-18T04:31:52.749Z,58.61
2023-04-18T04:34:29.649Z,58.74
2023-04-18T04:36:57.628Z,60.16
2023-04-18T04:39:27.224Z,59.73
2023-04-18T04:42:13.466Z,59.50
2023-04-18T04:44:53.573Z,59.98
2023-04-18T04:47:22.356Z,60.73
2023-04-18T04:49:49.562Z,60.47
2023-04-18T04:52:16.752Z,59.10
2023-04-18T04:54:45.781Z,57.94
2023-04-18T04:57:15.535Z,58.27
2023-04-18T04:59:42.914Z,60.45
2023-04-18T05:02:11.641Z,60.68
2023-04-18T05:04:39.518Z,59.25
2023-04-18T05:07:07.287Z,58.91
2023-04-18T05:09:34.810Z,59.73
2023-04-18T05:12:01.957Z,59.79
2023-04-18T05:14:29.211Z,60.64
2023-04-18T05:16:56.629Z,60.90
2023-04-18T05:19:26.494Z,61.05
2023-04-18T05:21:53.694Z,60.43
2023-04-18T05:24:21.234Z,60.13
2023-04-18T05:26:49.032Z,60.24
2023-04-18T05:29:16.147Z,59.91
2023-04-18T05:31:43.339Z,60.10
2023-04-18T05:34:13.547Z,59.28
2023-04-18T05:36:41.328Z,60.32
2023-04-18T05:39:08.622Z,57.75
2023-04-18T05:41:35.788Z,57.72
2023-04-18T05:44:05.786Z,58.69
2023-04-18T05:46:33.791Z,61.01
2023-04-18T05:49:01.881Z,59.74
2023-04-18T05:51:29.224Z,59.40
2023-04-18T05:53:56.704Z,58.58
2023-04-18T05:56:24.067Z,57.73
2023-04-18T05:58:51.460Z,57.86
2023-04-18T06:01:18.972Z,57.87
2023-04-18T06:03:46.455Z,58.38
2023-04-18T06:06:14.328Z,57.42
2023-04-18T06:08:41.778Z,57.16
2023-04-18T06:11:09.087Z,57.36
2023-04-18T06:13:37.368Z,56.50
2023-04-18T06:16:05.925Z,57.71
2023-04-18T06:18:33.596Z,57.68
2023-04-18T06:21:00.860Z,56.71
2023-04-18T06:23:28.109Z,55.70
2023-04-18T06:25:58.024Z,57.93
2023-04-18T06:28:27.044Z,57.88
2023-04-18T06:30:54.196Z,57.90
2023-04-18T06:33:21.518Z,57.83
2023-04-18T06:35:49.079Z,55.29
2023-04-18T06:38:16.488Z,56.11
2023-04-18T06:40:43.710Z,55.14
2023-04-18T06:43:11.065Z,55.99
2023-04-18T06:45:40.534Z,54.98
2023-04-18T06:48:09.132Z,55.40
2023-04-18T06:50:36.588Z,54.49
2023-04-18T06:53:03.784Z,53.16
2023-04-18T06:55:31.404Z,53.16
2023-04-18T06:58:00.491Z,54.82
2023-04-18T07:00:27.944Z,52.42
2023-04-18T07:02:55.331Z,52.38
2023-04-18T07:05:23.453Z,51.86
2023-04-18T07:07:51.554Z,51.32
2023-04-18T07:10:18.962Z,50.71
2023-04-18T07:12:47.482Z,49.91
2023-04-18T07:15:14.849Z,51.72
2023-04-18T07:17:42.100Z,52.16
2023-04-18T07:20:12.355Z,51.61
2023-04-18T07:22:42.035Z,54.52
2023-04-18T07:25:15.784Z,51.51
2023-04-18T07:27:43.192Z,52.79
2023-04-18T07:30:11.369Z,52.13
2023-04-18T07:32:38.797Z,51.98
2023-04-18T07:35:06.806Z,54.10
2023-04-18T07:37:36.054Z,53.19
2023-04-18T07:40:04.778Z,53.55
2023-04-18T07:42:32.066Z,52.18
2023-04-18T07:44:59.613Z,52.89
2023-04-18T07:47:30.284Z,51.93
2023-04-18T07:49:58.525Z,50.36
2023-04-18T07:52:25.968Z,52.73
2023-04-18T07:54:53.260Z,48.46
2023-04-18T07:57:20.886Z,48.45
2023-04-18T07:59:48.256Z,49.10
2023-04-18T08:02:16.287Z,48.71
2023-04-18T08:04:43.836Z,48.02
2023-04-18T08:07:11.441Z,48.20
2023-04-18T08:09:38.976Z,47.79
2023-04-18T08:12:06.757Z,44.35
2023-04-18T08:14:34.476Z,44.01
2023-04-18T08:17:01.973Z,42.39
2023-04-18T08:19:30.476Z,42.95
2023-04-18T08:22:11.194Z,39.32
2023-04-18T08:24:39.605Z,39.30
2023-04-18T08:27:07.586Z,36.60
2023-04-18T08:29:34.841Z,34.46
2023-04-18T08:32:02.314Z,36.06
2023-04-18T08:34:34.021Z,38.18
2023-04-18T08:37:02.124Z,39.96
2023-04-18T08:39:31.121Z,40.76
2023-04-18T08:42:00.784Z,34.82
2023-04-18T08:44:29.703Z,35.40
2023-04-18T08:46:57.811Z,41.30
2023-04-18T08:49:25.788Z,43.74
2023-04-18T08:51:53.523Z,45.06
2023-04-18T08:54:22.538Z,43.46
2023-04-18T08:57:16.896Z,47.66
2023-04-18T08:59:48.258Z,45.77
2023-04-18T09:02:17.909Z,44.32
2023-04-18T09:04:52.637Z,46.01
2023-04-18T09:07:28.619Z,44.34
2023-04-18T09:09:58.183Z,43.90
2023-04-18T09:12:27.946Z,45.55
2023-04-18T09:15:16.882Z,45.93
2023-04-18T09:17:50.986Z,48.56
2023-04-18T09:20:41.446Z,48.46
2023-04-18T09:23:14.778Z,47.75
2023-04-18T09:25:45.015Z,48.58
2023-04-18T09:28:28.072Z,47.07
2023-04-18T09:31:15.398Z,47.11
2023-04-18T09:33:56.813Z,46.20
2023-04-18T09:36:27.713Z,45.78
2023-04-18T09:38:57.247Z,47.70
2023-04-18T09:41:24.866Z,46.04
2023-04-18T09:44:15.879Z,43.70
2023-04-18T09:46:47.419Z,42.30
2023-04-18T09:49:16.804Z,39.50
2023-04-18T09:51:46.142Z,37.36
2023-04-18T09:54:18.390Z,39.23
2023-04-18T09:56:50.775Z,39.25
2023-04-18T09:59:32.723Z,40.74
2023-04-18T10:02:03.745Z,43.33
2023-04-18T10:04:32.932Z,41.35
2023-04-18T10:07:01.994Z,40.67
2023-04-18T10:09:33.959Z,42.21
2023-04-18T10:12:02.676Z,39.35
2023-04-18T10:14:33.777Z,38.44
2023-04-18T10:17:01.797Z,38.16
2023-04-18T10:19:30.300Z,38.03
2023-04-18T10:22:01.478Z,38.31
2023-04-18T10:24:56.338Z,38.48
2023-04-18T10:27:49.158Z,39.89
2023-04-18T10:30:18.934Z,37.75
2023-04-18T10:32:46.944Z,37.60
2023-04-18T10:35:14.821Z,39.00
2023-04-18T10:37:52.463Z,37.02
2023-04-18T10:40:34.563Z,39.19
2023-04-18T10:43:02.511Z,42.67
2023-04-18T10:45:36.263Z,42.24
2023-04-18T10:48:30.213Z,41.89
2023-04-18T10:51:20.796Z,39.99
2023-04-18T10:54:00.346Z,41.22
2023-04-18T10:56:29.016Z,42.24
2023-04-18T10:59:03.511Z,39.84
2023-04-18T11:01:36.525Z,40.26
2023-04-18T11:04:13.971Z,42.42
2023-04-18T11:06:55.056Z,42.57
2023-04-18T11:09:22.615Z,41.44
2023-04-18T11:12:10.935Z,41.27
2023-04-18T11:14:51.925Z,40.12
2023-04-18T11:17:32.860Z,39.78
2023-04-18T11:20:15.607Z,40.22
2023-04-18T11:23:00.973Z,39.77
2023-04-18T11:25:36.457Z,40.99
2023-04-18T11:28:04.988Z,40.96
2023-04-18T11:30:42.667Z,41.94
2023-04-18T11:33:13.166Z,41.58
2023-04-18T11:35:46.639Z,40.35
2023-04-18T11:38:16.589Z,42.27
2023-04-18T11:40:51.025Z,42.76
2023-04-18T11:43:25.567Z,42.16
2023-04-18T11:46:03.420Z,42.26
2023-04-18T11:48:41.300Z,42.04
2023-04-18T11:51:35.587Z,42.56
2023-04-18T11:54:02.906Z,43.59
2023-04-18T11:56:33.997Z,43.67
2023-04-18T11:59:09.937Z,42.49
2023-04-18T12:01:37.851Z,42.29
2023-04-18T12:04:08.159Z,42.97
2023-04-18T12:06:53.981Z,43.00
2023-04-18T12:09:25.034Z,42.73
2023-04-18T12:12:03.976Z,41.58
2023-04-18T12:14:31.274Z,41.78
2023-04-18T12:16:58.562Z,43.19
2023-04-18T12:19:30.278Z,40.81
2023-04-18T12:22:05.287Z,41.28
2023-04-18T12:24:34.029Z,41.08
2023-04-18T12:27:02.077Z,41.33
2023-04-18T12:29:29.874Z,39.86
2023-04-18T12:32:03.484Z,40.70
2023-04-18T12:34:31.035Z,40.45
2023-04-18T12:36:58.495Z,40.07
2023-04-18T12:39:26.023Z,38.60
2023-04-18T12:41:53.318Z,38.59
2023-04-18T12:44:21.000Z,38.17
2023-04-18T12:46:48.478Z,38.94
2023-04-18T12:49:15.982Z,39.78
2023-04-18T12:51:43.671Z,38.89
2023-04-18T12:54:10.988Z,38.84
2023-04-18T12:56:38.368Z,39.72
2023-04-18T12:59:05.742Z,38.86
2023-04-18T13:01:33.286Z,39.77
2023-04-18T13:04:11.589Z,39.26
2023-04-18T13:06:40.445Z,38.34
2023-04-18T13:09:08.206Z,37.58
2023-04-18T13:11:35.485Z,36.15
2023-04-18T13:14:02.796Z,37.51
2023-04-18T13:16:30.841Z,37.37
2023-04-18T13:18:58.308Z,39.24
2023-04-18T13:21:25.989Z,39.42
2023-04-18T13:24:18.919Z,39.08
2023-04-18T13:26:47.205Z,38.77
2023-04-18T13:29:14.706Z,38.20
2023-04-18T13:31:42.436Z,37.63
2023-04-18T13:34:13.871Z,37.32
2023-04-18T13:36:41.523Z,38.32
2023-04-18T13:39:09.251Z,38.21
2023-04-18T13:41:36.889Z,38.15
2023-04-18T13:44:04.744Z,38.10
2023-04-18T13:46:32.502Z,38.04
2023-04-18T13:49:00.188Z,37.81
2023-04-18T13:51:29.960Z,38.68
2023-04-18T13:53:57.560Z,38.46
2023-04-18T13:56:25.430Z,38.14
2023-04-18T13:58:53.140Z,38.59
2023-04-18T14:01:21.115Z,39.52
2023-04-18T14:03:49.325Z,40.27
2023-04-18T14:06:17.609Z,39.84
2023-04-18T14:08:45.760Z,40.46
2023-04-18T14:11:13.396Z,40.54
2023-04-18T14:13:41.132Z,39.82
2023-04-18T14:16:09.250Z,39.90
2023-04-18T14:18:36.940Z,41.22
2023-04-18T14:21:05.570Z,41.04
2023-04-18T14:23:36.714Z,41.09
2023-04-18T14:26:05.691Z,40.29
2023-04-18T14:28:58.665Z,39.54
2023-04-18T14:31:28.146Z,40.84
2023-04-18T14:33:55.449Z,39.45
2023-04-18T14:36:23.084Z,38.27
2023-04-18T14:38:50.425Z,37.51
2023-04-18T14:41:17.919Z,37.07
2023-04-18T14:43:45.800Z,37.22
2023-04-18T14:46:16.655Z,36.32
2023-04-18T14:48:48.014Z,38.65
2023-04-18T14:51:16.929Z,37.58
2023-04-18T14:53:45.590Z,38.36
2023-04-18T14:56:13.665Z,38.56
2023-04-18T14:58:41.144Z,37.58
2023-04-18T15:01:08.885Z,38.35
2023-04-18T15:03:36.526Z,38.74
2023-04-18T15:06:04.918Z,38.92
2023-04-18T15:08:33.020Z,38.73
2023-04-18T15:11:01.483Z,37.75
2023-04-18T15:13:29.144Z,37.49
2023-04-18T15:15:57.765Z,37.41
2023-04-18T15:18:25.486Z,37.24
2023-04-18T15:20:53.928Z,36.20
2023-04-18T15:23:21.641Z,37.11
2023-04-18T15:25:49.634Z,36.58
2023-04-18T15:28:18.720Z,36.91
2023-04-18T15:30:46.413Z,36.71
2023-04-18T15:33:14.439Z,36.67
2023-04-18T15:35:41.763Z,36.98
2023-04-18T15:38:09.484Z,36.38
2023-04-18T15:40:37.925Z,36.12
2023-04-18T15:43:06.007Z,36.99
2023-04-18T15:45:33.981Z,38.49
2023-04-18T15:48:02.273Z,38.16
2023-04-18T15:50:31.482Z,37.91
2023-04-18T15:53:00.540Z,36.69
2023-04-18T15:55:28.040Z,36.36
2023-04-18T15:57:55.695Z,35.54
2023-04-18T16:00:23.817Z,36.32
2023-04-18T16:02:52.004Z,36.36
2023-04-18T16:05:23.690Z,36.65
2023-04-18T16:07:53.856Z,37.87
2023-04-18T16:10:21.930Z,38.66
2023-04-18T16:12:49.358Z,39.85
2023-04-18T16:15:16.843Z,40.78
2023-04-18T16:17:44.234Z,40.80
2023-04-18T16:20:11.847Z,41.61
2023-04-18T16:22:39.113Z,42.97
2023-04-18T16:25:08.157Z,42.71
2023-04-18T16:27:35.782Z,41.85
2023-04-18T16:30:04.334Z,41.29
2023-04-18T16:32:32.711Z,42.49
2023-04-18T16:35:00.320Z,43.42
2023-04-18T16:37:28.400Z,42.56
2023-04-18T16:39:56.068Z,41.49
2023-04-18T16:42:23.322Z,42.52
2023-04-18T16:44:50.667Z,42.92
2023-04-18T16:47:18.511Z,43.29
2023-04-18T16:49:51.521Z,44.52
2023-04-18T16:52:19.359Z,43.51
2023-04-18T16:54:46.641Z,43.94
2023-04-18T16:57:14.791Z,43.70
2023-04-18T16:59:42.233Z,44.75
2023-04-18T17:02:09.942Z,44.22
2023-04-18T17:04:37.942Z,43.51
2023-04-18T17:07:05.504Z,43.40
2023-04-18T17:09:33.078Z,42.33
2023-04-18T17:12:01.666Z,42.38
2023-04-18T17:14:28.982Z,43.33
2023-04-18T17:16:56.438Z,44.30
2023-04-18T17:19:26.379Z,43.73
2023-04-18T17:21:53.982Z,44.35
2023-04-18T17:24:22.750Z,43.50
2023-04-18T17:26:50.364Z,42.97
2023-04-18T17:29:18.503Z,43.25
2023-04-18T17:31:46.021Z,43.14
2023-04-18T17:34:13.626Z,44.29
2023-04-18T17:36:41.288Z,45.83
2023-04-18T17:39:09.626Z,44.32
2023-04-18T17:41:39.217Z,43.56
2023-04-18T17:44:08.238Z,44.17
2023-04-18T17:46:36.306Z,44.71
2023-04-18T17:49:34.342Z,44.94
2023-04-18T17:52:02.744Z,43.52
2023-04-18T17:54:30.680Z,45.13
2023-04-18T17:56:58.454Z,43.79
2023-04-18T17:59:26.436Z,44.73
2023-04-18T18:01:57.939Z,44.59
2023-04-18T18:04:29.409Z,45.17
2023-04-18T18:06:58.596Z,45.06
2023-04-18T18:09:26.872Z,44.17
2023-04-18T18:11:55.912Z,44.16
2023-04-18T18:14:23.724Z,44.82
2023-04-18T18:16:51.245Z,45.49
2023-04-18T18:19:20.590Z,45.11
2023-04-18T18:21:48.144Z,44.64
2023-04-18T18:24:19.044Z,45.69
2023-04-18T18:26:46.519Z,47.37
2023-04-18T18:29:14.171Z,47.73
2023-04-18T18:31:42.827Z,46.77
2023-04-18T18:34:14.044Z,45.95
2023-04-18T18:36:41.531Z,45.75
2023-04-18T18:39:09.039Z,45.26
2023-04-18T18:41:36.380Z,45.73
2023-04-18T18:44:03.625Z,45.81
2023-04-18T18:46:31.265Z,46.81
2023-04-18T18:48:58.623Z,45.85
2023-04-18T18:51:26.356Z,46.24
2023-04-18T18:53:53.643Z,48.14
2023-04-18T18:56:22.337Z,49.37
2023-04-18T18:58:50.270Z,48.69
2023-04-18T19:01:23.789Z,48.50
2023-04-18T19:03:51.639Z,49.59
2023-04-18T19:06:21.854Z,48.98
2023-04-18T19:08:49.559Z,48.75
2023-04-18T19:11:18.844Z,49.01
2023-04-18T19:13:46.766Z,50.91
2023-04-18T19:16:14.202Z,51.06
2023-04-18T19:18:46.815Z,51.05
2023-04-18T19:21:14.211Z,51.00
2023-04-18T19:23:42.347Z,52.27
2023-04-18T19:26:12.385Z,51.46
2023-04-18T19:28:55.850Z,49.67
2023-04-18T19:31:43.845Z,50.39
2023-04-18T19:34:14.287Z,50.60
2023-04-18T19:36:41.879Z,50.92
2023-04-18T19:39:09.772Z,50.75
2023-04-18T19:41:37.506Z,50.77
2023-04-18T19:44:07.866Z,50.82
2023-04-18T19:46:35.672Z,50.89
2023-04-18T19:49:06.733Z,50.77
2023-04-18T19:51:34.435Z,52.03
2023-04-18T19:54:02.340Z,50.59
2023-04-18T19:56:29.778Z,51.71
2023-04-18T19:58:58.112Z,51.74
2023-04-18T20:01:25.993Z,51.47
2023-04-18T20:04:08.193Z,52.19
2023-04-18T20:06:58.638Z,50.98
2023-04-18T20:09:26.180Z,52.83
2023-04-18T20:11:54.327Z,52.02
2023-04-18T20:14:21.810Z,52.06
2023-04-18T20:16:49.901Z,53.90
2023-04-18T20:19:19.713Z,53.54
2023-04-18T20:21:47.041Z,52.72
2023-04-18T20:24:15.620Z,51.88
2023-04-18T20:26:43.938Z,52.48
2023-04-18T20:29:11.252Z,50.88
2023-04-18T20:31:42.292Z,51.61
2023-04-18T20:34:13.988Z,53.26
2023-04-18T20:36:41.899Z,52.39
2023-04-18T20:39:09.860Z,51.85
2023-04-18T20:41:39.566Z,52.08
2023-04-18T20:44:13.049Z,52.50
2023-04-18T20:46:42.232Z,52.39
2023-04-18T20:49:13.640Z,53.85
2023-04-18T20:51:41.518Z,53.33
2023-04-18T20:54:09.005Z,52.58
2023-04-18T20:56:38.786Z,52.74
2023-04-18T20:59:06.041Z,51.49
2023-04-18T21:01:33.805Z,53.03
2023-04-18T21:04:02.618Z,53.26
2023-04-18T21:06:31.278Z,51.81
2023-04-18T21:08:58.903Z,52.88
2023-04-18T21:11:26.626Z,51.61
2023-04-18T21:13:54.090Z,51.66
2023-04-18T21:16:21.753Z,51.47
2023-04-18T21:18:49.376Z,50.88
2023-04-18T21:21:17.873Z,51.31
2023-04-18T21:23:46.379Z,52.26
2023-04-18T21:26:17.945Z,52.76
2023-04-18T21:29:04.341Z,54.48
2023-04-18T21:31:39.872Z,53.05
2023-04-18T21:34:14.170Z,52.91
2023-04-18T21:36:41.883Z,53.45
2023-04-18T21:39:09.086Z,52.30
2023-04-18T21:41:36.489Z,53.86
2023-04-18T21:44:04.160Z,53.57
2023-04-18T21:46:31.744Z,52.28
2023-04-18T21:48:59.511Z,52.09
2023-04-18T21:51:27.310Z,52.54
2023-04-18T21:53:54.928Z,52.46
2023-04-18T21:56:22.682Z,52.34
2023-04-18T21:58:50.521Z,53.85
2023-04-18T22:01:18.149Z,53.79
2023-04-18T22:03:46.270Z,52.92
2023-04-18T22:06:14.018Z,53.33
2023-04-18T22:08:42.064Z,53.17
2023-04-18T22:11:11.625Z,51.97
2023-04-18T22:13:38.957Z,52.91
2023-04-18T22:16:10.800Z,52.50
2023-04-18T22:18:42.148Z,51.82
2023-04-18T22:21:10.050Z,50.98
2023-04-18T22:23:37.674Z,51.68
2023-04-18T22:26:06.243Z,52.15
2023-04-18T22:28:33.999Z,51.39
2023-04-18T22:31:01.461Z,50.63
2023-04-18T22:33:28.951Z,50.95
2023-04-18T22:35:56.260Z,52.02
2023-04-18T22:38:26.053Z,51.19
2023-04-18T22:40:53.556Z,51.72
2023-04-18T22:43:23.593Z,51.61
2023-04-18T22:45:51.736Z,51.56
2023-04-18T22:48:19.497Z,52.30
2023-04-18T22:50:47.289Z,52.20
2023-04-18T22:53:16.491Z,52.22
2023-04-18T22:55:46.227Z,54.30
2023-04-18T22:58:14.236Z,53.70
2023-04-18T23:00:41.798Z,52.75
2023-04-18T23:03:09.599Z,52.07
2023-04-18T23:05:37.488Z,51.48
2023-04-18T23:08:08.801Z,51.84
2023-04-18T23:10:36.592Z,52.88
2023-04-18T23:13:04.192Z,53.61
2023-04-18T23:15:31.430Z,53.51
2023-04-18T23:17:58.827Z,54.08
2023-04-18T23:20:26.620Z,52.36
2023-04-18T23:22:56.065Z,52.96
2023-04-18T23:25:23.996Z,51.80
2023-04-18T23:27:52.361Z,52.03
2023-04-18T23:30:19.788Z,51.64
2023-04-18T23:32:47.070Z,52.55
2023-04-18T23:35:14.901Z,53.06
2023-04-18T23:37:42.694Z,52.37
2023-04-18T23:40:11.015Z,53.22
2023-04-18T23:42:38.716Z,52.98
2023-04-18T23:45:07.036Z,54.82
2023-04-18T23:47:35.491Z,53.71
2023-04-18T23:50:03.294Z,54.46
2023-04-18T23:52:30.709Z,53.85
2023-04-18T23:55:02.043Z,54.19
2023-04-18T23:57:29.607Z,54.76
2023-04-18T23:59:57.405Z,53.40
